createdAt,value
2019-05-20T00:02:24.732Z,1.70
2019-05-20T00:04:48.876Z,1.53
2019-05-20T00:07:17.267Z,1.80
2019-05-20T00:09:45.671Z,1.70
2019-05-20T00:12:13.984Z,1.70
2019-05-20T00:14:42.281Z,2.10
2019-05-20T00:17:10.584Z,2.10
2019-05-20T00:19:38.936Z,1.60
2019-05-20T00:22:07.231Z,1.50
2019-05-20T00:24:35.541Z,1.50
2019-05-20T00:27:03.874Z,1.47
2019-05-20T00:29:32.197Z,1.70
2019-05-20T00:32:00.553Z,1.33
2019-05-20T00:34:35.219Z,1.50
2019-05-20T00:36:58.845Z,1.40
2019-05-20T00:39:27.166Z,1.40
2019-05-20T00:41:55.520Z,1.40
2019-05-20T00:44:23.837Z,1.90
2019-05-20T00:46:52.128Z,1.50
2019-05-20T00:49:20.373Z,1.60
2019-05-20T00:51:48.695Z,1.50
2019-05-20T00:54:17.116Z,1.70
2019-05-20T00:56:46.436Z,1.47
2019-05-20T00:59:14.707Z,1.70
2019-05-20T01:01:42.967Z,1.80
2019-05-20T01:04:11.240Z,1.87
2019-05-20T01:06:39.500Z,2.03
2019-05-20T01:09:08.019Z,1.77
2019-05-20T01:11:36.328Z,2.00
2019-05-20T01:14:04.867Z,1.80
2019-05-20T01:16:33.161Z,2.27
2019-05-20T01:19:01.484Z,2.00
2019-05-20T01:21:29.830Z,1.80
2019-05-20T01:23:58.166Z,2.10
2019-05-20T01:26:26.824Z,2.23
2019-05-20T01:28:55.094Z,2.30
2019-05-20T01:31:23.444Z,2.13
2019-05-20T01:33:51.771Z,2.03
2019-05-20T01:36:20.176Z,2.20
2019-05-20T01:38:48.530Z,2.27
2019-05-20T01:41:16.922Z,2.10
2019-05-20T01:43:45.280Z,2.40
2019-05-20T01:46:13.544Z,2.60
2019-05-20T01:48:41.973Z,2.40
2019-05-20T01:51:10.296Z,2.10
2019-05-20T01:53:38.648Z,2.40
2019-05-20T01:56:06.891Z,2.43
2019-05-20T01:58:35.366Z,2.50
2019-05-20T02:01:03.623Z,2.23
2019-05-20T02:03:32.548Z,2.03
2019-05-20T02:06:01.035Z,2.27
2019-05-20T02:08:29.357Z,2.07
2019-05-20T02:10:57.735Z,2.30
2019-05-20T02:13:27.703Z,2.40
2019-05-20T02:15:57.685Z,2.00
2019-05-20T02:18:25.942Z,2.10
2019-05-20T02:20:54.296Z,1.93
2019-05-20T02:23:22.620Z,1.80
2019-05-20T02:25:51.019Z,2.23
2019-05-20T02:28:19.365Z,2.40
2019-05-20T02:30:47.767Z,1.90
2019-05-20T02:33:16.180Z,2.30
2019-05-20T02:35:44.435Z,2.17
2019-05-20T02:38:12.960Z,2.10
2019-05-20T02:40:41.287Z,2.40
2019-05-20T02:43:09.550Z,2.20
2019-05-20T02:45:37.905Z,2.30
2019-05-20T02:48:06.257Z,2.30
2019-05-20T02:50:34.620Z,2.40
2019-05-20T02:53:02.945Z,3.00
2019-05-20T02:55:31.263Z,2.33
2019-05-20T02:57:59.538Z,3.00
2019-05-20T03:00:28.009Z,2.60
2019-05-20T03:02:56.388Z,2.57
2019-05-20T03:05:24.783Z,2.33
2019-05-20T03:07:53.068Z,2.87
2019-05-20T03:10:21.471Z,3.00
2019-05-20T03:12:49.755Z,3.10
2019-05-20T03:15:18.165Z,3.03
2019-05-20T03:17:46.538Z,2.70
2019-05-20T03:20:14.863Z,2.83
2019-05-20T03:22:43.160Z,2.90
2019-05-20T03:25:11.536Z,2.63
2019-05-20T03:27:39.883Z,3.00
2019-05-20T03:30:08.511Z,3.43
2019-05-20T03:32:36.891Z,3.10
2019-05-20T03:35:06.772Z,3.17
2019-05-20T03:37:35.031Z,3.40
2019-05-20T03:40:04.475Z,3.30
2019-05-20T03:42:32.849Z,3.97
2019-05-20T03:45:01.234Z,3.60
2019-05-20T03:47:29.661Z,3.60
2019-05-20T03:49:57.979Z,4.10
2019-05-20T03:52:26.256Z,4.37
2019-05-20T03:54:54.516Z,3.80
2019-05-20T03:57:22.793Z,4.50
2019-05-20T03:59:51.049Z,4.03
2019-05-20T04:02:19.861Z,4.00
2019-05-20T04:05:01.446Z,3.53
2019-05-20T04:07:18.072Z,4.77
2019-05-20T04:09:46.425Z,4.47
2019-05-20T04:12:14.748Z,4.10
2019-05-20T04:14:43.418Z,4.40
2019-05-20T04:17:11.741Z,4.33
2019-05-20T04:19:40.068Z,4.30
2019-05-20T04:22:08.362Z,4.30
2019-05-20T04:24:36.688Z,4.57
2019-05-20T04:27:05.047Z,5.13
2019-05-20T04:29:33.446Z,4.63
2019-05-20T04:32:01.786Z,5.23
2019-05-20T04:34:30.213Z,5.20
2019-05-20T04:36:58.876Z,4.90
2019-05-20T04:39:27.434Z,5.07
2019-05-20T04:41:55.833Z,4.73
2019-05-20T04:44:24.162Z,6.20
2019-05-20T04:46:52.515Z,5.50
2019-05-20T04:49:20.778Z,6.80
2019-05-20T04:51:49.452Z,6.10
2019-05-20T04:54:17.780Z,6.57
2019-05-20T04:56:46.133Z,7.37
2019-05-20T04:59:14.464Z,8.97
2019-05-20T05:01:42.927Z,9.87
2019-05-20T05:04:11.262Z,9.83
2019-05-20T05:06:39.588Z,11.77
2019-05-20T05:09:08.125Z,11.33
2019-05-20T05:11:36.527Z,12.03
2019-05-20T05:14:04.949Z,13.17
2019-05-20T05:16:33.263Z,12.73
2019-05-20T05:19:01.623Z,12.00
2019-05-20T05:21:30.032Z,12.93
2019-05-20T05:23:59.615Z,11.47
2019-05-20T05:26:27.981Z,11.90
2019-05-20T05:28:56.243Z,11.40
2019-05-20T05:31:24.675Z,10.20
2019-05-20T05:33:54.434Z,11.13
2019-05-20T05:36:22.974Z,10.00
2019-05-20T05:38:51.316Z,10.57
2019-05-20T05:41:19.658Z,10.10
2019-05-20T05:43:47.915Z,9.83
2019-05-20T05:46:16.193Z,8.97
2019-05-20T05:48:44.524Z,9.03
2019-05-20T05:51:12.893Z,9.23
2019-05-20T05:53:41.228Z,8.70
2019-05-20T05:56:09.567Z,8.90
2019-05-20T05:58:37.921Z,7.93
2019-05-20T06:01:06.256Z,8.83
2019-05-20T06:03:34.603Z,9.10
2019-05-20T06:06:12.018Z,8.23
2019-05-20T06:08:32.844Z,8.50
2019-05-20T06:11:01.105Z,8.20
2019-05-20T06:13:29.424Z,8.07
2019-05-20T06:15:57.700Z,8.73
2019-05-20T06:18:26.024Z,7.83
2019-05-20T06:20:54.373Z,8.20
2019-05-20T06:23:22.620Z,8.73
2019-05-20T06:25:50.973Z,7.33
2019-05-20T06:28:19.701Z,7.17
2019-05-20T06:30:48.123Z,7.40
2019-05-20T06:33:16.426Z,7.83
2019-05-20T06:35:44.816Z,7.37
2019-05-20T06:38:17.331Z,7.03
2019-05-20T06:40:45.659Z,7.47
2019-05-20T06:43:14.069Z,6.80
2019-05-20T06:45:42.345Z,6.67
2019-05-20T06:48:10.631Z,7.10
2019-05-20T06:50:39.022Z,6.20
2019-05-20T06:53:07.383Z,7.17
2019-05-20T06:55:35.643Z,7.47
2019-05-20T06:58:03.893Z,6.70
2019-05-20T07:00:33.565Z,6.87
2019-05-20T07:03:01.975Z,7.10
2019-05-20T07:05:30.378Z,7.03
2019-05-20T07:08:01.206Z,7.73
2019-05-20T07:10:28.753Z,6.77
2019-05-20T07:12:57.108Z,8.07
2019-05-20T07:15:25.727Z,7.20
2019-05-20T07:17:54.081Z,7.40
2019-05-20T07:20:22.407Z,8.87
2019-05-20T07:22:55.849Z,7.60
2019-05-20T07:25:20.937Z,7.40
2019-05-20T07:27:49.535Z,7.70
2019-05-20T07:30:18.019Z,7.63
2019-05-20T07:32:46.542Z,7.60
2019-05-20T07:35:28.676Z,8.53
2019-05-20T07:37:45.022Z,7.90
2019-05-20T07:40:13.782Z,8.10
2019-05-20T07:42:42.081Z,8.80
2019-05-20T07:45:10.511Z,8.57
2019-05-20T07:47:38.843Z,8.27
2019-05-20T07:50:08.463Z,8.03
2019-05-20T07:52:37.559Z,8.60
2019-05-20T07:55:07.716Z,7.77
2019-05-20T07:57:37.617Z,7.63
2019-05-20T08:00:07.319Z,8.57
2019-05-20T08:02:35.658Z,8.70
2019-05-20T08:05:08.224Z,9.10
2019-05-20T08:07:51.228Z,9.20
2019-05-20T08:10:07.146Z,8.60
2019-05-20T08:12:35.588Z,8.80
2019-05-20T08:15:07.350Z,9.23
2019-05-20T08:17:35.716Z,10.03
2019-05-20T08:20:05.016Z,10.97
2019-05-20T08:22:33.445Z,10.37
2019-05-20T08:25:01.881Z,10.67
2019-05-20T08:27:30.213Z,11.70
2019-05-20T08:29:58.497Z,11.60
2019-05-20T08:32:26.769Z,12.63
2019-05-20T08:34:55.125Z,11.97
2019-05-20T08:37:23.454Z,12.83
2019-05-20T08:39:52.056Z,13.37
2019-05-20T08:42:20.315Z,12.63
2019-05-20T08:44:48.582Z,15.07
2019-05-20T08:47:16.963Z,13.80
2019-05-20T08:49:45.308Z,14.90
2019-05-20T08:52:13.695Z,14.57
2019-05-20T08:54:42.035Z,14.97
2019-05-20T08:57:10.383Z,14.60
2019-05-20T08:59:38.883Z,12.53
2019-05-20T09:02:07.244Z,13.90
2019-05-20T09:04:35.499Z,13.70
2019-05-20T09:07:03.834Z,13.60
2019-05-20T09:09:32.324Z,12.37
2019-05-20T09:12:00.632Z,14.10
2019-05-20T09:14:28.937Z,12.33
2019-05-20T09:16:57.276Z,13.33
2019-05-20T09:19:25.884Z,13.50
2019-05-20T09:21:54.216Z,13.20
2019-05-20T09:24:22.467Z,12.60
2019-05-20T09:26:50.762Z,14.37
2019-05-20T09:29:19.087Z,11.50
2019-05-20T09:31:47.456Z,12.83
2019-05-20T09:34:15.924Z,13.80
2019-05-20T09:36:44.412Z,13.83
2019-05-20T09:39:12.821Z,15.77
2019-05-20T09:41:41.244Z,14.73
2019-05-20T09:44:09.586Z,12.97
2019-05-20T09:46:37.925Z,14.23
2019-05-20T09:49:06.318Z,13.80
2019-05-20T09:51:34.645Z,14.43
2019-05-20T09:54:02.927Z,15.30
2019-05-20T09:56:31.272Z,14.90
2019-05-20T09:58:59.627Z,2.70
2019-05-20T10:01:27.878Z,2.63
2019-05-20T10:03:56.142Z,2.30
2019-05-20T10:06:24.498Z,2.47
2019-05-20T10:08:52.816Z,1.60
2019-05-20T10:11:21.162Z,2.37
2019-05-20T10:13:49.425Z,2.80
2019-05-20T10:16:17.758Z,2.97
2019-05-20T10:18:46.184Z,3.97
2019-05-20T10:21:14.460Z,1.53
2019-05-20T10:23:42.830Z,0.93
2019-05-20T10:26:11.165Z,1.67
2019-05-20T10:28:42.106Z,1.47
2019-05-20T10:31:09.572Z,2.13
2019-05-20T10:33:37.890Z,1.53
2019-05-20T10:36:06.440Z,1.33
2019-05-20T10:38:34.787Z,2.63
2019-05-20T10:41:03.128Z,2.37
2019-05-20T10:43:31.544Z,1.63
2019-05-20T10:45:59.897Z,3.13
2019-05-20T10:48:28.279Z,2.63
2019-05-20T10:50:56.624Z,3.10
2019-05-20T10:53:28.174Z,4.13
2019-05-20T10:55:55.095Z,2.37
2019-05-20T10:58:23.405Z,2.87
2019-05-20T11:01:02.534Z,1.43
2019-05-20T11:03:21.725Z,3.33
2019-05-20T11:05:50.057Z,2.53
2019-05-20T11:08:18.415Z,3.23
2019-05-20T11:10:46.738Z,2.50
2019-05-20T11:13:15.238Z,2.00
2019-05-20T11:15:43.593Z,1.23
2019-05-20T11:18:11.937Z,2.47
2019-05-20T11:20:40.372Z,2.33
2019-05-20T11:23:08.684Z,3.97
2019-05-20T11:25:37.000Z,3.47
2019-05-20T11:28:05.356Z,1.67
2019-05-20T11:30:33.755Z,3.20
2019-05-20T11:33:02.109Z,1.93
2019-05-20T11:35:30.359Z,1.83
2019-05-20T11:37:58.664Z,1.43
2019-05-20T11:40:26.921Z,3.23
2019-05-20T11:42:55.324Z,2.23
2019-05-20T11:45:23.682Z,1.77
2019-05-20T11:47:52.007Z,1.80
2019-05-20T11:50:20.448Z,2.47
2019-05-20T11:52:48.930Z,2.40
2019-05-20T11:55:17.428Z,2.50
2019-05-20T11:57:45.762Z,2.87
2019-05-20T12:00:14.393Z,3.60
2019-05-20T12:02:42.724Z,4.07
2019-05-20T12:05:11.302Z,2.17
2019-05-20T12:07:39.599Z,2.10
2019-05-20T12:10:08.504Z,3.10
2019-05-20T12:12:36.787Z,3.30
2019-05-20T12:15:06.360Z,1.83
2019-05-20T12:17:35.320Z,3.07
2019-05-20T12:20:06.664Z,1.43
2019-05-20T12:22:35.372Z,2.23
2019-05-20T12:25:05.430Z,3.57
2019-05-20T12:27:33.764Z,3.20
2019-05-20T12:30:02.250Z,2.47
2019-05-20T12:32:32.635Z,2.87
2019-05-20T12:35:00.751Z,3.87
2019-05-20T12:37:29.113Z,1.87
2019-05-20T12:40:07.162Z,3.20
2019-05-20T12:42:27.407Z,2.27
2019-05-20T12:44:55.670Z,2.33
2019-05-20T12:47:24.029Z,2.13
2019-05-20T12:49:52.367Z,4.00
2019-05-20T12:52:20.732Z,1.70
2019-05-20T12:55:06.226Z,3.37
2019-05-20T12:57:19.038Z,2.83
2019-05-20T12:59:47.370Z,4.20
2019-05-20T13:02:17.460Z,1.77
2019-05-20T13:04:45.683Z,2.53
2019-05-20T13:07:14.007Z,4.80
2019-05-20T13:09:42.356Z,3.93
2019-05-20T13:12:10.611Z,2.10
2019-05-20T13:14:38.895Z,3.13
2019-05-20T13:17:07.158Z,1.57
2019-05-20T13:19:35.520Z,3.10
2019-05-20T13:22:04.112Z,2.67
2019-05-20T13:24:32.531Z,2.83
2019-05-20T13:27:00.782Z,2.80
2019-05-20T13:29:29.051Z,3.93
2019-05-20T13:31:57.407Z,3.17
2019-05-20T13:34:25.669Z,2.33
2019-05-20T13:36:54.035Z,3.87
2019-05-20T13:39:22.374Z,1.90
2019-05-20T13:41:50.742Z,3.13
2019-05-20T13:44:19.070Z,2.90
2019-05-20T13:46:47.400Z,1.53
2019-05-20T13:49:15.757Z,3.93
2019-05-20T13:51:44.020Z,3.40
2019-05-20T13:54:12.599Z,1.57
2019-05-20T13:56:40.863Z,2.13
2019-05-20T13:59:09.202Z,3.23
2019-05-20T14:01:37.571Z,4.07
2019-05-20T14:04:05.960Z,3.40
2019-05-20T14:06:34.487Z,4.63
2019-05-20T14:09:07.292Z,4.10
2019-05-20T14:11:34.965Z,3.27
2019-05-20T14:14:03.508Z,1.43
2019-05-20T14:16:31.845Z,3.73
2019-05-20T14:19:00.204Z,2.23
2019-05-20T14:21:28.540Z,3.07
2019-05-20T14:23:57.080Z,3.70
2019-05-20T14:26:25.473Z,2.93
2019-05-20T14:28:53.797Z,2.90
2019-05-20T14:31:22.136Z,2.40
2019-05-20T14:33:50.473Z,5.10
2019-05-20T14:36:37.923Z,2.33
2019-05-20T14:38:48.796Z,2.00
2019-05-20T14:41:21.510Z,3.73
2019-05-20T14:43:47.182Z,3.30
2019-05-20T14:46:15.509Z,2.47
2019-05-20T14:48:43.861Z,3.23
2019-05-20T14:51:12.152Z,3.63
2019-05-20T14:53:40.485Z,2.30
2019-05-20T14:56:08.844Z,3.47
2019-05-20T14:58:37.239Z,1.27
2019-05-20T15:01:05.791Z,2.87
2019-05-20T15:03:34.438Z,2.63
2019-05-20T15:06:02.826Z,3.27
2019-05-20T15:08:34.286Z,2.07
2019-05-20T15:11:01.171Z,3.97
2019-05-20T15:13:29.516Z,4.30
2019-05-20T15:15:57.864Z,2.20
2019-05-20T15:18:26.154Z,3.80
2019-05-20T15:20:54.490Z,4.07
2019-05-20T15:23:22.808Z,4.93
2019-05-20T15:25:51.098Z,4.00
2019-05-20T15:28:19.444Z,3.40
2019-05-20T15:30:47.809Z,3.87
2019-05-20T15:33:16.124Z,2.70
2019-05-20T15:35:44.396Z,4.03
2019-05-20T15:38:12.740Z,3.33
2019-05-20T15:40:41.028Z,2.90
2019-05-20T15:43:09.464Z,3.77
2019-05-20T15:45:37.721Z,2.17
2019-05-20T15:48:06.068Z,3.93
2019-05-20T15:50:34.417Z,2.83
2019-05-20T15:53:02.718Z,2.97
2019-05-20T15:55:31.041Z,1.80
2019-05-20T15:57:59.374Z,4.50
2019-05-20T16:00:28.060Z,2.87
2019-05-20T16:02:56.408Z,3.53
2019-05-20T16:05:24.799Z,2.30
2019-05-20T16:07:53.294Z,2.47
2019-05-20T16:10:21.693Z,2.13
2019-05-20T16:12:50.023Z,3.13
2019-05-20T16:15:18.487Z,1.93
2019-05-20T16:17:48.511Z,3.43
2019-05-20T16:20:17.043Z,1.57
2019-05-20T16:22:45.292Z,3.57
2019-05-20T16:25:13.903Z,2.23
2019-05-20T16:27:42.262Z,2.03
2019-05-20T16:30:10.665Z,2.10
2019-05-20T16:32:39.387Z,4.20
2019-05-20T16:35:07.855Z,2.83
2019-05-20T16:37:36.175Z,0.80
2019-05-20T16:40:08.536Z,2.17
2019-05-20T16:42:36.919Z,2.47
2019-05-20T16:45:06.717Z,2.10
2019-05-20T16:47:34.993Z,2.53
2019-05-20T16:50:04.415Z,2.70
2019-05-20T16:52:33.163Z,2.63
2019-05-20T16:55:01.518Z,3.17
2019-05-20T16:57:29.876Z,1.30
2019-05-20T17:00:00.736Z,3.30
2019-05-20T17:02:31.396Z,1.87
2019-05-20T17:05:01.830Z,2.73
2019-05-20T17:07:30.497Z,2.20
2019-05-20T17:10:00.294Z,2.30
2019-05-20T17:12:28.943Z,1.33
2019-05-20T17:14:57.442Z,2.40
2019-05-20T17:17:25.959Z,3.37
2019-05-20T17:19:54.575Z,2.53
2019-05-20T17:22:23.288Z,2.63
2019-05-20T17:24:51.813Z,4.07
2019-05-20T17:27:20.999Z,4.60
2019-05-20T17:29:55.307Z,2.43
2019-05-20T17:32:24.002Z,4.13
2019-05-20T17:34:52.487Z,2.50
2019-05-20T17:37:21.064Z,3.03
2019-05-20T17:39:49.925Z,3.20
2019-05-20T17:45:07.796Z,3.40
2019-05-20T17:47:36.431Z,2.37
2019-05-20T17:50:06.014Z,4.07
2019-05-20T17:52:35.562Z,1.70
2019-05-20T17:55:14.080Z,2.53
2019-05-20T17:57:42.591Z,4.03
2019-05-20T18:00:19.910Z,3.53
2019-05-20T18:02:48.693Z,3.23
2019-05-20T18:05:17.385Z,4.23
2019-05-20T18:07:46.493Z,4.13
2019-05-20T18:10:16.805Z,1.63
2019-05-20T18:12:45.737Z,3.30
2019-05-20T18:15:15.030Z,3.77
2019-05-20T18:17:44.162Z,4.33
2019-05-20T18:20:14.588Z,4.07
2019-05-20T18:22:43.092Z,4.23
2019-05-20T18:25:12.259Z,5.37
2019-05-20T18:27:45.096Z,4.23
2019-05-20T18:30:14.266Z,6.67
2019-05-20T18:32:43.274Z,3.27
2019-05-20T18:35:12.508Z,4.27
2019-05-20T18:37:41.560Z,5.30
2019-05-20T18:40:14.421Z,4.00
2019-05-20T18:42:42.544Z,5.53
2019-05-20T18:45:11.126Z,7.30
2019-05-20T18:47:39.633Z,3.87
2019-05-20T18:50:08.054Z,5.47
2019-05-20T18:52:44.516Z,4.43
2019-05-20T18:55:13.150Z,4.60
2019-05-20T18:57:41.747Z,5.40
2019-05-20T19:00:14.554Z,5.27
2019-05-20T19:02:43.166Z,2.87
2019-05-20T19:05:11.704Z,3.73
2019-05-20T19:07:40.444Z,4.67
2019-05-20T19:10:09.213Z,4.43
2019-05-20T19:12:39.359Z,5.60
2019-05-20T19:15:08.325Z,4.00
2019-05-20T19:17:37.044Z,5.10
2019-05-20T19:20:05.906Z,6.33
2019-05-20T19:22:37.580Z,6.00
2019-05-20T19:25:06.973Z,5.57
2019-05-20T19:27:35.780Z,4.70
2019-05-20T19:30:05.493Z,5.63
2019-05-20T19:32:34.295Z,4.13
2019-05-20T19:35:03.324Z,2.23
2019-05-20T19:37:31.962Z,4.33
2019-05-20T19:40:00.454Z,3.60
2019-05-20T19:42:29.211Z,4.73
2019-05-20T19:44:58.004Z,3.87
2019-05-20T19:47:26.580Z,5.63
2019-05-20T19:49:55.083Z,3.77
2019-05-20T19:52:23.665Z,6.67
2019-05-20T19:54:52.186Z,4.63
2019-05-20T19:57:20.994Z,5.83
2019-05-20T19:59:49.455Z,4.37
2019-05-20T20:02:18.242Z,3.73
2019-05-20T20:04:46.771Z,4.50
2019-05-20T20:07:15.375Z,4.43
2019-05-20T20:09:43.760Z,6.03
2019-05-20T20:12:13.975Z,6.57
2019-05-20T20:14:44.451Z,2.73
2019-05-20T20:33:09.065Z,5.27
2019-05-20T20:35:50.500Z,3.60
2019-05-20T20:38:58.924Z,4.60
2019-05-20T20:52:47.716Z,3.40
2019-05-20T21:02:20.829Z,5.03
2019-05-20T21:45:21.398Z,2.63
2019-05-20T21:47:51.976Z,7.23
2019-05-20T22:01:01.286Z,1.90
2019-05-20T22:03:29.723Z,3.13
2019-05-20T22:05:58.083Z,4.60
2019-05-20T22:08:26.615Z,4.43
2019-05-20T22:10:55.112Z,3.23
2019-05-20T22:13:23.734Z,1.93
2019-05-20T22:15:52.117Z,4.57
2019-05-20T22:18:21.519Z,5.00
2019-05-20T22:20:49.884Z,2.50
2019-05-20T22:23:36.671Z,4.30
2019-05-20T22:26:05.920Z,3.37
2019-05-20T22:28:34.372Z,3.90
2019-05-20T22:31:02.922Z,4.47
2019-05-20T22:33:41.023Z,3.27
2019-05-20T22:36:01.184Z,2.97
2019-05-20T22:38:29.546Z,4.20
2019-05-20T22:40:57.876Z,2.67
2019-05-20T22:43:26.204Z,4.50
2019-05-20T22:45:55.190Z,5.13
2019-05-20T22:48:23.515Z,3.70
2019-05-20T22:50:51.844Z,2.90
2019-05-20T22:53:21.908Z,2.10
2019-05-20T22:55:50.356Z,6.47
2019-05-20T22:58:18.608Z,2.53
2019-05-20T23:00:47.107Z,3.03
2019-05-20T23:03:15.451Z,4.20
2019-05-20T23:05:43.741Z,2.77
2019-05-20T23:08:12.004Z,2.50
2019-05-20T23:10:40.242Z,5.33
2019-05-20T23:13:08.494Z,5.07
2019-05-20T23:15:37.752Z,3.30
2019-05-20T23:18:05.988Z,2.23
2019-05-20T23:20:34.263Z,2.93
2019-05-20T23:23:03.488Z,3.07
2019-05-20T23:25:31.991Z,2.43
2019-05-20T23:28:00.255Z,2.67
2019-05-20T23:30:28.489Z,3.20
2019-05-20T23:33:07.876Z,2.13
2019-05-20T23:35:37.630Z,1.47
2019-05-20T23:38:05.876Z,1.37
2019-05-20T23:40:34.201Z,1.90
2019-05-20T23:43:02.501Z,1.40
2019-05-20T23:45:30.998Z,1.33
2019-05-20T23:48:00.381Z,1.80
2019-05-20T23:50:28.611Z,0.87
2019-05-20T23:52:56.871Z,2.30
2019-05-20T23:55:25.111Z,2.20
2019-05-20T23:57:57.688Z,1.73
